Time;durP1;ratioP1;P1;durP2;ratioP2;P2;SDS_P1;SDS_P2;PMS_P1;PMS_P2;Temp;Humidity;BMP_temperature;BMP_pressure;BME280_temperature;BME280_humidity;BME280_pressure;Samples;Min_cycle;Max_cycle;Signal;HPM_P1;HPM_P2
2022/02/14 00:02:14;;;;;;;;;;;-1.90;99.90;;;;;;5070979;28;19991;-72
2022/02/14 00:04:41;;;;;;;;;;;-2.00;99.90;;;;;;5069517;28;19916;-73
2022/02/14 00:07:07;;;;;;;;;;;-2.00;99.90;;;;;;5070903;28;19909;-72
2022/02/14 00:09:33;;;;;;;;;;;-2.10;99.90;;;;;;5070440;28;19913;-73
2022/02/14 00:11:58;;;;;;;;;;;-2.10;99.90;;;;;;5077142;28;19959;-73
2022/02/14 00:14:24;;;;;;;;;;;-2.10;99.90;;;;;;5070621;28;19908;-73
2022/02/14 00:16:49;;;;;;;;;;;-2.10;99.90;;;;;;5070799;28;20125;-73
2022/02/14 00:19:15;;;;;;;;;;;-2.00;99.90;;;;;;5070842;28;20355;-73
2022/02/14 00:21:40;;;;;;;;;;;-2.10;99.90;;;;;;5070787;28;19909;-73
2022/02/14 00:24:09;;;;;;;;;;;-2.10;99.90;;;;;;5070539;28;19916;-72
2022/02/14 00:26:36;;;;;;;;;;;-2.00;99.90;;;;;;5070796;28;19966;-73
2022/02/14 00:29:02;;;;;;;;;;;-2.20;99.90;;;;;;5070770;28;19916;-72
2022/02/14 00:31:27;;;;;;;;;;;-2.20;99.90;;;;;;5070645;28;19909;-73
2022/02/14 00:33:53;;;;;;;;;;;-2.20;99.90;;;;;;5070900;28;19959;-73
2022/02/14 00:36:18;;;;;;;;;;;-2.10;99.90;;;;;;5065867;28;19959;-73
2022/02/14 00:38:44;;;;;;;;;;;-2.00;99.90;;;;;;5074076;28;19919;-73
2022/02/14 00:41:10;;;;;;;;;;;-1.90;99.90;;;;;;5070665;28;19955;-73
2022/02/14 00:43:35;;;;;;;;;;;-1.90;99.90;;;;;;5070335;28;20373;-73
2022/02/14 00:46:01;;;;;;;;;;;-1.80;99.90;;;;;;5069343;28;19913;-73
2022/02/14 00:48:27;;;;;;;;;;;-1.90;99.90;;;;;;5070450;28;19920;-73
2022/02/14 00:50:52;;;;;;;;;;;-2.10;99.90;;;;;;5070714;28;19951;-72
2022/02/14 00:53:19;;;;;;;;;;;-2.20;99.90;;;;;;5070299;28;19959;-73
2022/02/14 00:55:45;;;;;;;;;;;-2.30;99.90;;;;;;5070828;28;20427;-73
2022/02/14 00:58:11;;;;;;;;;;;-2.40;99.90;;;;;;5070408;28;19975;-72
2022/02/14 01:00:36;;;;;;;;;;;-2.40;99.90;;;;;;5071018;28;20356;-73
2022/02/14 01:03:02;;;;;;;;;;;-2.40;99.90;;;;;;5070340;28;20001;-73
2022/02/14 01:05:28;;;;;;;;;;;-2.40;99.90;;;;;;5070552;28;19912;-73
2022/02/14 01:07:53;;;;;;;;;;;-2.40;99.90;;;;;;5064713;28;20331;-72
2022/02/14 01:10:19;;;;;;;;;;;-2.10;99.90;;;;;;5070014;28;19908;-72
2022/02/14 01:12:44;;;;;;;;;;;-2.10;99.90;;;;;;5070169;28;20102;-73
2022/02/14 01:15:10;;;;;;;;;;;-2.20;99.90;;;;;;5073597;28;19913;-73
2022/02/14 01:17:36;;;;;;;;;;;-2.20;99.90;;;;;;5073722;28;19912;-73
2022/02/14 01:20:03;;;;;;;;;;;-1.90;99.90;;;;;;5073868;28;20007;-73
2022/02/14 01:22:29;;;;;;;;;;;-2.00;99.90;;;;;;5073674;28;19998;-72
2022/02/14 01:24:54;;;;;;;;;;;-1.80;99.90;;;;;;5072550;28;20483;-72
2022/02/14 01:27:20;;;;;;;;;;;-1.90;99.90;;;;;;5073622;28;19955;-73
2022/02/14 01:29:45;;;;;;;;;;;-1.90;99.90;;;;;;5073758;28;20011;-72
2022/02/14 01:32:11;;;;;;;;;;;-1.90;99.90;;;;;;5072186;28;20179;-73
2022/02/14 01:34:36;;;;;;;;;;;-1.80;99.90;;;;;;5073352;28;20384;-73
2022/02/14 01:37:02;;;;;;;;;;;-1.70;99.90;;;;;;5073381;28;19909;-73
2022/02/14 01:39:29;;;;;;;;;;;-1.70;99.90;;;;;;5073196;28;20245;-73
2022/02/14 01:41:55;;;;;;;;;;;-1.50;99.90;;;;;;5073235;28;20365;-73
2022/02/14 01:44:50;;;;;;;;;;;-1.40;99.90;;;;;;5073330;28;19909;-73
2022/02/14 01:47:17;;;;;;;;;;;-1.30;99.90;;;;;;5059990;28;20339;-73
2022/02/14 01:49:43;;;;;;;;;;;-1.50;99.90;;;;;;5073178;28;20388;-73
2022/02/14 01:52:09;;;;;;;;;;;-1.70;99.90;;;;;;5073103;28;19913;-73
2022/02/14 01:54:35;;;;;;;;;;;-1.80;99.90;;;;;;5072994;28;19982;-73
2022/02/14 01:57:01;;;;;;;;;;;-1.70;99.90;;;;;;5073391;28;19908;-73
2022/02/14 01:59:26;;;;;;;;;;;-1.60;99.90;;;;;;5072996;28;19932;-73
2022/02/14 02:01:52;;;;;;;;;;;-1.50;99.90;;;;;;5072945;28;20381;-73
2022/02/14 02:04:17;;;;;;;;;;;-1.30;99.90;;;;;;5073016;28;19919;-73
2022/02/14 02:06:43;;;;;;;;;;;-1.10;99.90;;;;;;5071574;28;19966;-73
2022/02/14 02:09:12;;;;;;;;;;;-1.20;99.90;;;;;;5076398;28;20376;-73
2022/02/14 02:14:21;;;;;;;;;;;-1.30;99.90;;;;;;5072679;28;20438;-73
2022/02/14 02:16:47;;;;;;;;;;;-1.30;99.90;;;;;;5072596;28;19916;-73
2022/02/14 02:19:12;;;;;;;;;;;-1.20;99.90;;;;;;5072780;28;20019;-73
2022/02/14 02:21:38;;;;;;;;;;;-1.30;99.90;;;;;;5072520;28;19916;-73
2022/02/14 02:24:07;;;;;;;;;;;-1.20;99.90;;;;;;5072472;28;19912;-72
2022/02/14 02:26:32;;;;;;;;;;;-1.30;99.90;;;;;;5071379;28;20281;-72
2022/02/14 02:28:58;;;;;;;;;;;-1.30;99.90;;;;;;5072827;28;19913;-72
2022/02/14 02:31:23;;;;;;;;;;;-1.10;99.90;;;;;;5071813;28;19916;-73
2022/02/14 02:33:49;;;;;;;;;;;-1.10;99.90;;;;;;5072021;28;19908;-72
2022/02/14 02:36:14;;;;;;;;;;;-1.00;99.90;;;;;;5072398;28;19908;-73
2022/02/14 02:38:40;;;;;;;;;;;-0.50;99.90;;;;;;5067852;28;20266;-73
2022/02/14 02:41:05;;;;;;;;;;;0.50;99.90;;;;;;5071730;28;19975;-73
2022/02/14 02:43:31;;;;;;;;;;;0.60;99.90;;;;;;5071959;28;20285;-73
2022/02/14 02:45:56;;;;;;;;;;;0.80;97.90;;;;;;5072215;28;19912;-73
2022/02/14 02:48:23;;;;;;;;;;;1.10;96.40;;;;;;5072129;28;19908;-73
2022/02/14 02:51:01;;;;;;;;;;;1.50;94.50;;;;;;5072108;28;20365;-73
2022/02/14 02:53:27;;;;;;;;;;;1.70;93.60;;;;;;5071702;28;19909;-72
2022/02/14 02:55:52;;;;;;;;;;;1.80;92.40;;;;;;5072114;28;19962;-73
2022/02/14 02:58:18;;;;;;;;;;;1.50;93.30;;;;;;5070601;28;19915;-72
2022/02/14 03:00:43;;;;;;;;;;;1.10;94.60;;;;;;5072093;28;19909;-72
2022/02/14 03:03:09;;;;;;;;;;;0.60;95.50;;;;;;5071463;28;20293;-72
2022/02/14 03:05:34;;;;;;;;;;;0.60;95.60;;;;;;5071734;28;19913;-73
2022/02/14 03:08:00;;;;;;;;;;;0.80;94.60;;;;;;5070845;28;19908;-73
2022/02/14 03:10:25;;;;;;;;;;;0.80;94.20;;;;;;5071317;28;20500;-72
2022/02/14 03:12:51;;;;;;;;;;;1.00;93.50;;;;;;5071687;28;19961;-72
2022/02/14 03:15:16;;;;;;;;;;;0.90;94.30;;;;;;5071356;28;19955;-73
2022/02/14 03:17:42;;;;;;;;;;;0.40;95.30;;;;;;5071577;28;19912;-73
2022/02/14 03:20:07;;;;;;;;;;;-0.10;96.80;;;;;;5070342;28;19908;-72
2022/02/14 03:22:33;;;;;;;;;;;-0.30;97.40;;;;;;5071202;28;19919;-73
2022/02/14 03:24:58;;;;;;;;;;;-0.70;98.40;;;;;;5071062;28;19940;-73
2022/02/14 03:27:24;;;;;;;;;;;-0.80;98.70;;;;;;5071515;28;19923;-73
2022/02/14 03:29:49;;;;;;;;;;;-0.90;99.50;;;;;;5071477;28;19908;-73
2022/02/14 03:32:15;;;;;;;;;;;-0.80;99.00;;;;;;5071290;28;19959;-73
2022/02/14 03:34:40;;;;;;;;;;;-0.90;98.90;;;;;;5071073;28;20003;-73
2022/02/14 03:37:06;;;;;;;;;;;-1.00;99.20;;;;;;5069206;28;19920;-73
2022/02/14 03:39:31;;;;;;;;;;;-1.00;99.50;;;;;;5068604;28;19915;-73
2022/02/14 03:41:57;;;;;;;;;;;-1.10;99.90;;;;;;5070960;28;19912;-73
2022/02/14 03:44:22;;;;;;;;;;;-1.10;99.70;;;;;;5070968;28;19912;-73
2022/02/14 03:46:48;;;;;;;;;;;-1.20;99.90;;;;;;5071301;28;19912;-73
2022/02/14 03:49:13;;;;;;;;;;;-1.30;99.90;;;;;;5071232;28;19961;-73
2022/02/14 03:51:39;;;;;;;;;;;-1.40;99.90;;;;;;5071052;28;20349;-73
2022/02/14 03:54:04;;;;;;;;;;;-1.40;99.90;;;;;;5070750;28;19909;-73
2022/02/14 03:56:30;;;;;;;;;;;-1.50;99.90;;;;;;5071196;28;19908;-73
2022/02/14 03:58:56;;;;;;;;;;;-1.40;99.90;;;;;;5071000;28;19908;-73
2022/02/14 04:01:21;;;;;;;;;;;-1.40;99.90;;;;;;5071008;28;19931;-73
2022/02/14 04:03:47;;;;;;;;;;;-1.50;99.90;;;;;;5070769;28;20274;-73
2022/02/14 04:06:12;;;;;;;;;;;-1.60;99.90;;;;;;5071356;28;19913;-73
2022/02/14 04:08:38;;;;;;;;;;;-1.40;99.90;;;;;;5066176;28;19912;-72
2022/02/14 04:11:03;;;;;;;;;;;-1.10;99.90;;;;;;5070722;28;19913;-73
2022/02/14 04:13:28;;;;;;;;;;;-1.10;99.90;;;;;;5070623;28;19932;-73
2022/02/14 04:15:54;;;;;;;;;;;-1.10;99.90;;;;;;5070766;28;19916;-73
2022/02/14 04:18:19;;;;;;;;;;;-1.40;99.90;;;;;;5070993;28;19966;-73
2022/02/14 04:20:45;;;;;;;;;;;-1.50;99.90;;;;;;5070925;28;19977;-72
2022/02/14 04:23:11;;;;;;;;;;;-1.60;99.90;;;;;;5068973;28;19915;-73
2022/02/14 04:25:36;;;;;;;;;;;-1.70;99.90;;;;;;5070723;28;19965;-73
2022/02/14 04:28:02;;;;;;;;;;;-1.70;99.90;;;;;;5070685;28;19913;-72
2022/02/14 04:30:29;;;;;;;;;;;-1.60;99.90;;;;;;5070819;28;20144;-72
2022/02/14 04:32:56;;;;;;;;;;;-1.40;99.90;;;;;;5070608;28;19991;-72
2022/02/14 04:35:22;;;;;;;;;;;-1.30;99.90;;;;;;5070505;28;19909;-73
2022/02/14 04:37:48;;;;;;;;;;;-1.40;99.90;;;;;;5069623;28;19909;-73
2022/02/14 04:40:14;;;;;;;;;;;-1.30;99.90;;;;;;5070298;28;19909;-72
2022/02/14 04:42:41;;;;;;;;;;;-1.50;99.90;;;;;;5070490;28;19909;-72
2022/02/14 04:45:07;;;;;;;;;;;-1.90;99.90;;;;;;5070364;28;20419;-74
2022/02/14 04:47:32;;;;;;;;;;;-1.60;99.90;;;;;;5070435;28;19909;-73
2022/02/14 04:49:58;;;;;;;;;;;-1.50;99.90;;;;;;5073758;28;19962;-72
2022/02/14 04:52:23;;;;;;;;;;;-1.60;99.90;;;;;;5074136;28;19912;-72
2022/02/14 04:54:49;;;;;;;;;;;-1.70;99.90;;;;;;5073983;28;19909;-73
2022/02/14 04:57:14;;;;;;;;;;;-1.50;99.90;;;;;;5074268;28;19908;-73
2022/02/14 04:59:40;;;;;;;;;;;-1.80;99.90;;;;;;5074352;28;19950;-73
2022/02/14 05:02:05;;;;;;;;;;;-1.70;99.90;;;;;;5074097;28;19992;-73
2022/02/14 05:04:31;;;;;;;;;;;-1.80;99.90;;;;;;5073935;28;20000;-73
2022/02/14 05:06:56;;;;;;;;;;;-1.90;99.90;;;;;;5073782;28;19917;-73
2022/02/14 05:09:22;;;;;;;;;;;-1.60;99.90;;;;;;5076131;28;19917;-73
2022/02/14 05:11:47;;;;;;;;;;;-1.80;99.90;;;;;;5073852;28;20508;-72
2022/02/14 05:14:13;;;;;;;;;;;-1.50;99.90;;;;;;5073844;28;19916;-72
2022/02/14 05:16:38;;;;;;;;;;;-1.50;99.90;;;;;;5073840;28;20471;-73
2022/02/14 05:19:04;;;;;;;;;;;-1.50;99.90;;;;;;5074412;28;19995;-73
2022/02/14 05:21:29;;;;;;;;;;;-1.50;99.90;;;;;;5073556;28;19908;-73
2022/02/14 05:23:56;;;;;;;;;;;-1.40;99.90;;;;;;5073536;28;19909;-73
2022/02/14 05:26:22;;;;;;;;;;;-1.50;99.90;;;;;;5073779;28;19920;-73
2022/02/14 05:28:47;;;;;;;;;;;-0.60;98.70;;;;;;5073758;28;19909;-73
2022/02/14 05:31:13;;;;;;;;;;;-0.40;97.70;;;;;;5073713;28;20471;-72
2022/02/14 05:33:38;;;;;;;;;;;-0.30;97.50;;;;;;5073583;28;19909;-72
2022/02/14 05:36:04;;;;;;;;;;;-0.20;96.70;;;;;;5073507;28;19939;-73
2022/02/14 05:38:29;;;;;;;;;;;-0.20;96.60;;;;;;5069060;28;19991;-72
2022/02/14 05:40:55;;;;;;;;;;;0.10;96.70;;;;;;5073147;28;19908;-73
2022/02/14 05:43:20;;;;;;;;;;;0.30;95.80;;;;;;5073111;28;19954;-73
2022/02/14 05:45:46;;;;;;;;;;;0.50;95.90;;;;;;5073414;28;19916;-73
2022/02/14 05:48:11;;;;;;;;;;;0.30;95.80;;;;;;5073537;28;19944;-72
2022/02/14 05:50:37;;;;;;;;;;;0.30;95.90;;;;;;5073560;28;19908;-73
2022/02/14 05:53:02;;;;;;;;;;;0.00;96.40;;;;;;5074085;28;19915;-73
2022/02/14 05:55:28;;;;;;;;;;;0.40;95.60;;;;;;5073760;28;19977;-73
2022/02/14 05:57:53;;;;;;;;;;;0.00;96.20;;;;;;5073862;28;19916;-73
2022/02/14 06:00:19;;;;;;;;;;;0.90;94.70;;;;;;5074229;28;19908;-72
2022/02/14 06:02:44;;;;;;;;;;;0.90;94.50;;;;;;5067005;28;19960;-73
2022/02/14 06:05:10;;;;;;;;;;;1.00;93.90;;;;;;5073213;28;20427;-74
2022/02/14 06:07:35;;;;;;;;;;;0.90;94.50;;;;;;5068844;28;20163;-73
2022/02/14 06:10:01;;;;;;;;;;;1.10;94.00;;;;;;5072592;28;19948;-72
2022/02/14 06:12:27;;;;;;;;;;;1.20;94.20;;;;;;5072951;28;20277;-73
2022/02/14 06:14:52;;;;;;;;;;;1.10;93.80;;;;;;5073086;28;19916;-72
2022/02/14 06:17:18;;;;;;;;;;;1.00;94.00;;;;;;5073198;28;20553;-73
2022/02/14 06:19:43;;;;;;;;;;;1.00;94.30;;;;;;5073248;28;19913;-73
2022/02/14 06:22:09;;;;;;;;;;;0.80;94.40;;;;;;5073238;28;20368;-73
2022/02/14 06:24:34;;;;;;;;;;;0.80;94.70;;;;;;5073012;28;19931;-73
2022/02/14 06:27:00;;;;;;;;;;;0.80;94.80;;;;;;5073113;28;19913;-73
2022/02/14 06:29:26;;;;;;;;;;;1.20;94.20;;;;;;5073004;28;19913;-73
2022/02/14 06:31:51;;;;;;;;;;;1.60;93.20;;;;;;5073008;28;19967;-72
2022/02/14 06:34:17;;;;;;;;;;;1.80;92.90;;;;;;5072466;28;19913;-73
2022/02/14 06:36:42;;;;;;;;;;;1.40;93.90;;;;;;5068433;28;19932;-73
2022/02/14 06:39:09;;;;;;;;;;;1.10;94.40;;;;;;5072766;28;19916;-72
2022/02/14 06:41:34;;;;;;;;;;;1.10;94.10;;;;;;5072118;28;19912;-73
2022/02/14 06:44:00;;;;;;;;;;;1.20;94.10;;;;;;5072085;28;19908;-73
2022/02/14 06:46:25;;;;;;;;;;;1.30;93.90;;;;;;5072178;28;19970;-73
2022/02/14 06:48:51;;;;;;;;;;;1.10;94.30;;;;;;5072606;28;20331;-73
2022/02/14 06:51:19;;;;;;;;;;;1.40;93.70;;;;;;5072449;28;19919;-73
2022/02/14 06:53:45;;;;;;;;;;;1.40;94.00;;;;;;5072762;28;20034;-72
2022/02/14 06:56:11;;;;;;;;;;;1.80;93.20;;;;;;5074191;28;19915;-72
2022/02/14 06:58:37;;;;;;;;;;;1.70;93.00;;;;;;5074383;28;19909;-72
2022/02/14 07:01:03;;;;;;;;;;;2.00;92.60;;;;;;5072681;28;19947;-72
2022/02/14 07:03:29;;;;;;;;;;;2.30;92.30;;;;;;5072970;28;19915;-73
2022/02/14 07:05:54;;;;;;;;;;;2.00;93.00;;;;;;5072614;28;19916;-72
2022/02/14 07:08:20;;;;;;;;;;;2.10;92.80;;;;;;5072107;28;19908;-72
2022/02/14 07:10:47;;;;;;;;;;;2.20;92.60;;;;;;5072402;28;19908;-72
2022/02/14 07:13:12;;;;;;;;;;;2.30;92.50;;;;;;5071597;28;19908;-72
2022/02/14 07:15:38;;;;;;;;;;;2.40;92.40;;;;;;5072165;28;19995;-72
2022/02/14 07:18:09;;;;;;;;;;;2.30;92.70;;;;;;5070529;28;19920;-73
2022/02/14 07:20:35;;;;;;;;;;;2.10;93.20;;;;;;5072010;28;19909;-72
2022/02/14 07:23:01;;;;;;;;;;;2.30;93.00;;;;;;5073264;28;19908;-72
2022/02/14 07:25:26;;;;;;;;;;;2.40;92.70;;;;;;5071773;28;20053;-73
2022/02/14 07:27:52;;;;;;;;;;;2.40;92.80;;;;;;5071772;28;19912;-72
2022/02/14 07:30:17;;;;;;;;;;;2.30;93.10;;;;;;5072224;28;19917;-72
2022/02/14 07:32:43;;;;;;;;;;;2.40;92.90;;;;;;5072590;28;20003;-72
2022/02/14 07:35:09;;;;;;;;;;;2.40;92.80;;;;;;5075418;28;19908;-72
2022/02/14 07:37:34;;;;;;;;;;;2.60;92.80;;;;;;5070100;28;19995;-72
2022/02/14 07:40:00;;;;;;;;;;;3.00;92.20;;;;;;5072006;28;19916;-71
2022/02/14 07:42:27;;;;;;;;;;;3.40;91.30;;;;;;5072569;28;20392;-72
2022/02/14 07:44:53;;;;;;;;;;;3.20;91.80;;;;;;5072069;28;19947;-72
2022/02/14 07:47:19;;;;;;;;;;;3.10;92.30;;;;;;5071628;28;19952;-72
2022/02/14 07:49:44;;;;;;;;;;;3.40;92.00;;;;;;5066747;28;20345;-72
2022/02/14 07:52:10;;;;;;;;;;;3.70;91.10;;;;;;5059758;28;19916;-72
2022/02/14 07:54:35;;;;;;;;;;;4.00;90.90;;;;;;5070172;28;19966;-73
2022/02/14 07:57:01;;;;;;;;;;;4.00;90.90;;;;;;5071688;28;20262;-72
2022/02/14 07:59:26;;;;;;;;;;;4.00;91.20;;;;;;5072183;28;19959;-72
2022/02/14 08:01:52;;;;;;;;;;;4.00;91.10;;;;;;5067357;28;19967;-72
2022/02/14 08:04:18;;;;;;;;;;;4.10;91.30;;;;;;5064945;28;19975;-72
2022/02/14 08:06:43;;;;;;;;;;;4.40;90.40;;;;;;5069436;28;19974;-72
2022/02/14 08:09:11;;;;;;;;;;;4.30;90.60;;;;;;5065311;28;19909;-72
2022/02/14 08:11:37;;;;;;;;;;;4.40;90.30;;;;;;5073463;28;19962;-72
2022/02/14 08:14:02;;;;;;;;;;;4.40;90.50;;;;;;5071344;28;19908;-72
2022/02/14 08:16:28;;;;;;;;;;;4.40;90.30;;;;;;5066404;28;20050;-72
2022/02/14 08:18:53;;;;;;;;;;;4.50;90.40;;;;;;5072692;28;19916;-73
2022/02/14 08:21:19;;;;;;;;;;;4.70;90.10;;;;;;5072908;28;20432;-72
2022/02/14 08:23:45;;;;;;;;;;;5.20;88.70;;;;;;5070463;28;19916;-72
2022/02/14 08:26:10;;;;;;;;;;;5.40;88.10;;;;;;5076569;28;20281;-72
2022/02/14 08:28:38;;;;;;;;;;;5.30;88.50;;;;;;5070452;28;19913;-73
2022/02/14 08:31:04;;;;;;;;;;;5.60;87.00;;;;;;5073905;28;20339;-73
2022/02/14 08:33:30;;;;;;;;;;;5.60;88.00;;;;;;5075744;28;19908;-72
2022/02/14 08:35:56;;;;;;;;;;;5.60;88.80;;;;;;5075722;28;19952;-73
2022/02/14 08:38:22;;;;;;;;;;;5.90;87.50;;;;;;5077990;28;20268;-73
2022/02/14 08:40:47;;;;;;;;;;;6.30;86.10;;;;;;5079452;28;19912;-72
2022/02/14 08:43:13;;;;;;;;;;;7.00;82.80;;;;;;5068514;28;19912;-72
2022/02/14 08:45:38;;;;;;;;;;;8.50;81.40;;;;;;5071978;28;19954;-73
2022/02/14 08:48:04;;;;;;;;;;;10.60;72.00;;;;;;5075453;28;19953;-73
2022/02/14 08:50:29;;;;;;;;;;;10.70;67.90;;;;;;5076115;28;19962;-73
2022/02/14 08:52:56;;;;;;;;;;;11.10;68.20;;;;;;5072763;28;20301;-73
2022/02/14 08:55:21;;;;;;;;;;;11.10;67.10;;;;;;5071038;28;19953;-73
2022/02/14 08:57:47;;;;;;;;;;;11.40;68.90;;;;;;5075372;28;20313;-75
2022/02/14 09:00:13;;;;;;;;;;;11.60;65.60;;;;;;5072981;28;19915;-74
2022/02/14 09:02:38;;;;;;;;;;;11.80;63.90;;;;;;5072654;28;20356;-73
2022/02/14 09:05:05;;;;;;;;;;;13.10;63.30;;;;;;5074108;28;19908;-72
2022/02/14 09:07:31;;;;;;;;;;;14.10;60.50;;;;;;5072032;28;19954;-73
2022/02/14 09:09:57;;;;;;;;;;;14.20;58.80;;;;;;5077473;28;19920;-71
2022/02/14 09:12:23;;;;;;;;;;;14.40;57.70;;;;;;5072656;28;19959;-72
2022/02/14 09:14:50;;;;;;;;;;;14.40;56.80;;;;;;5073256;28;19908;-74
2022/02/14 09:17:16;;;;;;;;;;;14.00;56.80;;;;;;5072884;28;19970;-74
2022/02/14 09:19:42;;;;;;;;;;;13.30;58.90;;;;;;5071535;28;20311;-74
2022/02/14 09:22:07;;;;;;;;;;;11.30;61.00;;;;;;5070152;28;19919;-73
2022/02/14 09:24:33;;;;;;;;;;;12.30;64.70;;;;;;5068186;28;19912;-75
2022/02/14 09:26:58;;;;;;;;;;;15.00;57.30;;;;;;5060042;28;19982;-71
2022/02/14 09:29:24;;;;;;;;;;;16.70;54.80;;;;;;5059274;28;19943;-71
2022/02/14 09:31:51;;;;;;;;;;;17.80;53.00;;;;;;5074276;28;20277;-72
2022/02/14 09:34:19;;;;;;;;;;;17.80;52.00;;;;;;5067413;28;19916;-71
2022/02/14 09:36:46;;;;;;;;;;;18.50;51.50;;;;;;5071945;28;20361;-72
2022/02/14 09:39:11;;;;;;;;;;;18.30;51.00;;;;;;5069925;28;19908;-73
2022/02/14 09:41:37;;;;;;;;;;;18.30;51.10;;;;;;5072750;28;20281;-72
2022/02/14 09:44:04;;;;;;;;;;;19.00;49.90;;;;;;5072799;28;20377;-72
2022/02/14 09:46:30;;;;;;;;;;;19.60;48.40;;;;;;5073571;28;19944;-74
2022/02/14 09:48:58;;;;;;;;;;;19.10;48.20;;;;;;5073664;28;19908;-72
2022/02/14 09:51:23;;;;;;;;;;;17.80;50.10;;;;;;5070126;28;20338;-72
2022/02/14 09:53:49;;;;;;;;;;;16.00;52.60;;;;;;5070522;28;19909;-73
2022/02/14 09:56:14;;;;;;;;;;;16.60;53.90;;;;;;5072757;28;19913;-73
2022/02/14 09:58:40;;;;;;;;;;;18.60;52.10;;;;;;5059609;28;19913;-73
2022/02/14 10:01:05;;;;;;;;;;;20.00;48.40;;;;;;5071501;28;19909;-73
2022/02/14 10:03:33;;;;;;;;;;;21.20;46.40;;;;;;5071955;28;19919;-73
2022/02/14 10:06:00;;;;;;;;;;;20.60;44.30;;;;;;5056826;28;19917;-74
2022/02/14 10:08:27;;;;;;;;;;;19.60;47.20;;;;;;5069862;28;20369;-73
2022/02/14 10:11:09;;;;;;;;;;;19.80;47.80;;;;;;5074712;28;20319;-75
2022/02/14 10:13:35;;;;;;;;;;;17.80;50.90;;;;;;5073038;28;20394;-73
2022/02/14 10:16:05;;;;;;;;;;;17.90;51.10;;;;;;5009903;28;1791298;-73
2022/02/14 10:18:32;;;;;;;;;;;16.00;54.40;;;;;;5074187;28;19962;-73
2022/02/14 10:21:18;;;;;;;;;;;15.80;54.80;;;;;;5074234;28;20157;-73
2022/02/14 10:24:10;;;;;;;;;;;17.40;54.60;;;;;;5075253;28;19913;-73
2022/02/14 10:26:45;;;;;;;;;;;16.50;53.50;;;;;;5072661;28;19966;-73
2022/02/14 10:29:14;;;;;;;;;;;15.90;55.70;;;;;;5074174;28;19944;-73
2022/02/14 10:31:41;;;;;;;;;;;17.20;53.30;;;;;;5075757;28;19908;-73
2022/02/14 10:34:07;;;;;;;;;;;18.10;53.20;;;;;;5069591;28;20458;-73
2022/02/14 10:36:36;;;;;;;;;;;15.50;55.90;;;;;;5075558;28;19916;-73
2022/02/14 10:39:12;;;;;;;;;;;13.60;60.10;;;;;;5072610;28;19977;-73
2022/02/14 10:41:38;;;;;;;;;;;13.10;61.50;;;;;;5070831;28;19978;-74
2022/02/14 10:44:08;;;;;;;;;;;13.10;62.40;;;;;;5072962;28;19996;-74
2022/02/14 10:46:34;;;;;;;;;;;13.40;63.00;;;;;;5074787;28;19912;-74
2022/02/14 10:49:00;;;;;;;;;;;13.80;62.60;;;;;;5076023;28;19908;-74
2022/02/14 10:51:26;;;;;;;;;;;14.00;62.10;;;;;;5075484;28;19912;-74
2022/02/14 10:53:54;;;;;;;;;;;14.50;62.10;;;;;;5073830;28;19915;-74
2022/02/14 10:56:19;;;;;;;;;;;17.40;57.10;;;;;;5074717;28;19931;-76
2022/02/14 10:58:46;;;;;;;;;;;17.90;54.80;;;;;;5074970;28;20365;-73
2022/02/14 11:01:11;;;;;;;;;;;17.10;56.40;;;;;;5066994;28;20497;-73
2022/02/14 11:03:38;;;;;;;;;;;17.30;57.20;;;;;;5071956;28;19912;-73
2022/02/14 11:06:03;;;;;;;;;;;18.90;55.80;;;;;;5066082;28;20142;-73
2022/02/14 11:08:32;;;;;;;;;;;19.50;52.50;;;;;;5065887;28;20369;-74
2022/02/14 11:11:00;;;;;;;;;;;18.90;55.60;;;;;;5071511;28;20378;-74
2022/02/14 11:13:28;;;;;;;;;;;16.40;58.60;;;;;;5067137;28;19982;-74
2022/02/14 11:15:54;;;;;;;;;;;14.80;61.40;;;;;;5065808;28;19920;-74
2022/02/14 11:18:20;;;;;;;;;;;14.30;64.30;;;;;;5065455;28;19916;-73
2022/02/14 11:20:48;;;;;;;;;;;14.20;65.10;;;;;;5072104;28;20365;-75
2022/02/14 11:23:15;;;;;;;;;;;13.80;65.60;;;;;;5071830;28;19913;-76
2022/02/14 11:25:49;;;;;;;;;;;13.40;66.30;;;;;;5071785;28;19913;-73
2022/02/14 11:28:22;;;;;;;;;;;13.50;67.70;;;;;;5071986;28;19915;-73
2022/02/14 11:30:49;;;;;;;;;;;13.20;67.70;;;;;;5071675;28;19908;-72
2022/02/14 11:33:19;;;;;;;;;;;13.30;68.40;;;;;;5071650;28;20384;-73
2022/02/14 11:36:00;;;;;;;;;;;12.80;69.10;;;;;;5071669;28;19962;-74
2022/02/14 11:38:43;;;;;;;;;;;12.60;68.80;;;;;;5071227;28;19908;-74
2022/02/14 11:41:27;;;;;;;;;;;12.40;69.50;;;;;;5070873;28;19963;-76
2022/02/14 11:43:54;;;;;;;;;;;12.40;70.40;;;;;;5066307;28;19908;-73
2022/02/14 11:46:26;;;;;;;;;;;12.60;71.20;;;;;;5071506;28;20019;-73
2022/02/14 11:49:11;;;;;;;;;;;13.00;70.60;;;;;;5071582;28;19915;-73
2022/02/14 11:51:43;;;;;;;;;;;12.90;70.50;;;;;;5071056;28;19954;-74
2022/02/14 11:54:28;;;;;;;;;;;12.80;73.80;;;;;;5073966;28;20010;-73
2022/02/14 11:56:54;;;;;;;;;;;12.90;72.20;;;;;;5070278;28;19913;-73
2022/02/14 11:59:29;;;;;;;;;;;12.90;72.70;;;;;;5071075;28;19977;-73
2022/02/14 12:02:02;;;;;;;;;;;13.60;71.20;;;;;;5072420;28;19955;-76
2022/02/14 12:04:44;;;;;;;;;;;13.30;70.10;;;;;;5077467;28;19909;-74
2022/02/14 12:07:12;;;;;;;;;;;13.20;71.40;;;;;;5071180;28;20419;-74
2022/02/14 12:09:56;;;;;;;;;;;13.40;71.00;;;;;;5069225;28;20017;-74
2022/02/14 12:12:40;;;;;;;;;;;13.50;71.00;;;;;;5064585;28;20293;-74
2022/02/14 12:20:37;;;;;;;;;;;12.40;73.40;;;;;;5071405;28;20261;-74
2022/02/14 12:23:03;;;;;;;;;;;12.40;74.90;;;;;;5070752;28;19940;-74
2022/02/14 12:25:29;;;;;;;;;;;12.20;74.70;;;;;;5064117;28;19916;-74
2022/02/14 12:27:58;;;;;;;;;;;12.10;76.40;;;;;;5070804;28;19915;-74
2022/02/14 12:30:23;;;;;;;;;;;11.70;76.20;;;;;;5071693;28;19912;-76
2022/02/14 12:33:00;;;;;;;;;;;12.20;77.50;;;;;;5072830;28;19915;-74
2022/02/14 12:35:29;;;;;;;;;;;12.50;76.60;;;;;;5071537;28;19913;-76
2022/02/14 12:37:55;;;;;;;;;;;12.90;75.60;;;;;;5070105;28;19916;-75
2022/02/14 12:40:21;;;;;;;;;;;12.70;75.50;;;;;;5076569;28;19915;-75
2022/02/14 12:42:46;;;;;;;;;;;12.50;76.70;;;;;;5071572;28;19916;-74
2022/02/14 12:45:13;;;;;;;;;;;11.80;76.50;;;;;;5071930;28;20022;-77
2022/02/14 12:47:38;;;;;;;;;;;12.00;78.60;;;;;;5072700;28;19916;-74
2022/02/14 12:50:17;;;;;;;;;;;12.00;77.20;;;;;;5071588;28;19912;-76
2022/02/14 12:52:43;;;;;;;;;;;12.20;78.20;;;;;;5070891;28;19943;-75
2022/02/14 12:55:09;;;;;;;;;;;12.20;79.00;;;;;;5065682;28;19931;-74
2022/02/14 12:57:38;;;;;;;;;;;12.20;79.50;;;;;;5070834;28;19908;-74
2022/02/14 13:00:17;;;;;;;;;;;12.20;78.30;;;;;;5069852;28;19913;-75
2022/02/14 13:02:47;;;;;;;;;;;12.10;78.00;;;;;;5068342;28;20429;-76
2022/02/14 13:05:13;;;;;;;;;;;12.40;78.50;;;;;;5071009;28;19992;-75
2022/02/14 13:07:39;;;;;;;;;;;12.30;77.30;;;;;;5069236;28;19995;-75
2022/02/14 13:10:04;;;;;;;;;;;12.20;77.70;;;;;;5075014;28;19909;-75
2022/02/14 13:12:30;;;;;;;;;;;12.00;77.90;;;;;;5074786;28;19966;-75
2022/02/14 13:15:02;;;;;;;;;;;11.90;77.80;;;;;;5074565;28;19908;-75
2022/02/14 13:17:27;;;;;;;;;;;11.70;79.40;;;;;;5074193;28;19916;-75
2022/02/14 13:19:55;;;;;;;;;;;11.50;79.00;;;;;;5074037;28;20035;-76
2022/02/14 13:22:41;;;;;;;;;;;11.50;78.60;;;;;;5070912;28;19912;-75
2022/02/14 13:25:17;;;;;;;;;;;11.50;79.40;;;;;;5072757;28;19913;-76
2022/02/14 13:27:43;;;;;;;;;;;11.40;79.60;;;;;;5074437;28;19912;-75
2022/02/14 13:30:11;;;;;;;;;;;11.00;81.20;;;;;;5067971;28;19955;-77
2022/02/14 13:32:38;;;;;;;;;;;11.00;82.20;;;;;;5068076;28;19943;-75
2022/02/14 13:35:08;;;;;;;;;;;11.00;82.40;;;;;;5074311;28;19975;-76
2022/02/14 13:37:38;;;;;;;;;;;11.10;82.20;;;;;;5074622;28;19912;-76
2022/02/14 13:40:22;;;;;;;;;;;11.10;83.20;;;;;;5073819;28;20434;-77
2022/02/14 13:42:48;;;;;;;;;;;11.20;83.00;;;;;;5074613;28;19919;-75
2022/02/14 13:45:14;;;;;;;;;;;11.10;82.30;;;;;;5073274;28;19913;-76
2022/02/14 13:47:39;;;;;;;;;;;10.90;82.90;;;;;;5073144;28;19970;-77
2022/02/14 13:50:21;;;;;;;;;;;10.80;83.50;;;;;;5073384;28;20327;-75
2022/02/14 13:52:46;;;;;;;;;;;10.60;85.50;;;;;;5073401;28;19908;-76
2022/02/14 13:55:16;;;;;;;;;;;10.40;85.30;;;;;;5070137;28;19915;-77
2022/02/14 13:57:42;;;;;;;;;;;10.30;86.20;;;;;;5071935;28;19999;-75
2022/02/14 14:00:08;;;;;;;;;;;10.30;87.10;;;;;;5073147;28;19934;-75
2022/02/14 14:02:34;;;;;;;;;;;10.30;86.90;;;;;;5075990;28;19908;-76
2022/02/14 14:05:16;;;;;;;;;;;10.30;86.60;;;;;;5072965;28;20320;-75
2022/02/14 14:07:42;;;;;;;;;;;10.30;86.10;;;;;;5073019;28;19917;-75
2022/02/14 14:10:08;;;;;;;;;;;10.30;86.80;;;;;;5077217;28;20098;-75
2022/02/14 14:12:33;;;;;;;;;;;10.20;86.80;;;;;;5074566;28;19934;-75
2022/02/14 14:14:59;;;;;;;;;;;10.10;88.10;;;;;;5073850;28;19920;-75
2022/02/14 14:17:26;;;;;;;;;;;10.10;88.00;;;;;;5073528;28;20385;-75
2022/02/14 14:19:58;;;;;;;;;;;10.00;88.80;;;;;;5073824;28;19950;-75
2022/02/14 14:22:31;;;;;;;;;;;10.00;89.80;;;;;;5073636;28;20002;-75
2022/02/14 14:24:59;;;;;;;;;;;9.90;90.60;;;;;;5072249;28;19908;-76
2022/02/14 14:27:25;;;;;;;;;;;9.90;90.70;;;;;;5073547;28;19913;-75
2022/02/14 14:29:51;;;;;;;;;;;9.90;91.00;;;;;;5073094;28;20011;-75